Terminal Aerodrome Forecast
Issued by NWS

Home | Current Version | Previous Version | Text Only | Print | Product List | Glossary Off
Versions: 1 2 3 4 5 6 7 8 9 10 11 12 13 14 15 16 17 18 19 20 21 22 23 24

000
FTUS42 KMHX 172205 AAA
TAFOAJ
TAF AMD
KOAJ 172205Z 1722/1818 16006KT P6SM SCT040
      TEMPO 1722/1723 P6SM BKN009
     FM180000 VRB04KT P6SM BKN110
     FM181400 VRB04KT P6SM VCTS BKN050CB
      AMD LTD TO CLD VIS AND WIND=

USA.gov is the U.S. government's official web portal to all federal, state and local government web resources and services.